sensor_id;sensor_type;location;lat;lon;timestamp;temperature;humidity
25128;DHT22;13107;51.304;6.866;2023-04-25T00:02:34;6.30;99.90
25128;DHT22;13107;51.304;6.866;2023-04-25T00:06:37;6.40;99.90
25128;DHT22;13107;51.304;6.866;2023-04-25T00:10:39;6.50;99.90
25128;DHT22;13107;51.304;6.866;2023-04-25T00:14:40;6.50;99.90
25128;DHT22;13107;51.304;6.866;2023-04-25T00:18:42;6.50;99.90
25128;DHT22;13107;51.304;6.866;2023-04-25T00:22:44;6.50;99.90
25128;DHT22;13107;51.304;6.866;2023-04-25T00:26:46;6.60;99.90
25128;DHT22;13107;51.304;6.866;2023-04-25T00:30:49;6.70;99.90
25128;DHT22;13107;51.304;6.866;2023-04-25T00:34:50;6.70;99.90
25128;DHT22;13107;51.304;6.866;2023-04-25T00:38:53;6.80;99.90
25128;DHT22;13107;51.304;6.866;2023-04-25T00:42:55;6.70;99.90
25128;DHT22;13107;51.304;6.866;2023-04-25T00:46:57;6.80;99.90
25128;DHT22;13107;51.304;6.866;2023-04-25T00:50:59;6.70;99.90
25128;DHT22;13107;51.304;6.866;2023-04-25T00:55:01;6.70;99.90
25128;DHT22;13107;51.304;6.866;2023-04-25T00:59:03;6.80;99.90
25128;DHT22;13107;51.304;6.866;2023-04-25T01:03:05;6.80;99.90
25128;DHT22;13107;51.304;6.866;2023-04-25T01:07:07;6.80;99.90
25128;DHT22;13107;51.304;6.866;2023-04-25T01:11:09;6.80;99.90
25128;DHT22;13107;51.304;6.866;2023-04-25T01:15:11;6.80;99.90
25128;DHT22;13107;51.304;6.866;2023-04-25T01:19:16;6.90;99.90
25128;DHT22;13107;51.304;6.866;2023-04-25T01:23:22;6.90;99.90
25128;DHT22;13107;51.304;6.866;2023-04-25T01:27:24;6.90;99.90
25128;DHT22;13107;51.304;6.866;2023-04-25T01:31:27;6.90;99.90
25128;DHT22;13107;51.304;6.866;2023-04-25T01:35:29;6.90;99.90
25128;DHT22;13107;51.304;6.866;2023-04-25T01:39:31;6.90;99.90
25128;DHT22;13107;51.304;6.866;2023-04-25T01:43:33;6.90;99.90
25128;DHT22;13107;51.304;6.866;2023-04-25T01:47:35;6.90;99.90
25128;DHT22;13107;51.304;6.866;2023-04-25T01:51:37;6.80;99.90
25128;DHT22;13107;51.304;6.866;2023-04-25T01:55:38;6.80;99.90
25128;DHT22;13107;51.304;6.866;2023-04-25T01:59:41;6.80;99.90
25128;DHT22;13107;51.304;6.866;2023-04-25T02:03:43;6.80;99.90
25128;DHT22;13107;51.304;6.866;2023-04-25T02:07:45;6.80;99.90
25128;DHT22;13107;51.304;6.866;2023-04-25T02:11:47;6.80;99.90
25128;DHT22;13107;51.304;6.866;2023-04-25T02:15:49;6.80;99.90
25128;DHT22;13107;51.304;6.866;2023-04-25T02:19:51;6.70;99.90
25128;DHT22;13107;51.304;6.866;2023-04-25T02:23:53;6.70;99.90
25128;DHT22;13107;51.304;6.866;2023-04-25T02:27:55;6.70;99.90
25128;DHT22;13107;51.304;6.866;2023-04-25T02:31:57;6.70;99.90
25128;DHT22;13107;51.304;6.866;2023-04-25T02:35:58;6.70;99.90
25128;DHT22;13107;51.304;6.866;2023-04-25T02:40:00;6.70;99.90
25128;DHT22;13107;51.304;6.866;2023-04-25T02:44:02;6.80;99.90
25128;DHT22;13107;51.304;6.866;2023-04-25T02:48:04;6.70;99.90
25128;DHT22;13107;51.304;6.866;2023-04-25T02:52:06;6.70;99.90
25128;DHT22;13107;51.304;6.866;2023-04-25T02:56:08;6.80;99.90
25128;DHT22;13107;51.304;6.866;2023-04-25T03:00:10;6.80;99.90
25128;DHT22;13107;51.304;6.866;2023-04-25T03:04:13;6.70;99.90
25128;DHT22;13107;51.304;6.866;2023-04-25T03:08:15;6.60;99.90
25128;DHT22;13107;51.304;6.866;2023-04-25T03:12:16;6.60;99.90
25128;DHT22;13107;51.304;6.866;2023-04-25T03:16:18;6.70;99.90
25128;DHT22;13107;51.304;6.866;2023-04-25T03:20:20;6.60;99.90
25128;DHT22;13107;51.304;6.866;2023-04-25T03:24:21;6.60;99.90
25128;DHT22;13107;51.304;6.866;2023-04-25T03:28:23;6.60;99.90
25128;DHT22;13107;51.304;6.866;2023-04-25T03:32:25;6.60;99.90
25128;DHT22;13107;51.304;6.866;2023-04-25T03:36:26;6.60;99.90
25128;DHT22;13107;51.304;6.866;2023-04-25T03:40:28;6.50;99.90
25128;DHT22;13107;51.304;6.866;2023-04-25T03:44:30;6.50;99.90
25128;DHT22;13107;51.304;6.866;2023-04-25T03:48:32;6.40;99.90
25128;DHT22;13107;51.304;6.866;2023-04-25T03:52:33;6.40;99.90
25128;DHT22;13107;51.304;6.866;2023-04-25T03:56:35;6.20;99.90
25128;DHT22;13107;51.304;6.866;2023-04-25T04:00:37;6.20;99.90
25128;DHT22;13107;51.304;6.866;2023-04-25T04:04:38;6.20;99.90
25128;DHT22;13107;51.304;6.866;2023-04-25T04:08:41;6.20;99.90
25128;DHT22;13107;51.304;6.866;2023-04-25T04:12:42;6.20;99.90
25128;DHT22;13107;51.304;6.866;2023-04-25T04:16:44;6.20;99.90
25128;DHT22;13107;51.304;6.866;2023-04-25T04:20:46;6.20;99.90
25128;DHT22;13107;51.304;6.866;2023-04-25T04:24:48;6.20;99.90
25128;DHT22;13107;51.304;6.866;2023-04-25T04:28:51;6.20;99.90
25128;DHT22;13107;51.304;6.866;2023-04-25T04:32:53;6.20;99.90
25128;DHT22;13107;51.304;6.866;2023-04-25T04:36:55;6.10;99.90
25128;DHT22;13107;51.304;6.866;2023-04-25T04:40:56;6.10;99.90
25128;DHT22;13107;51.304;6.866;2023-04-25T04:44:58;6.00;99.90
25128;DHT22;13107;51.304;6.866;2023-04-25T04:49:00;6.00;99.90
25128;DHT22;13107;51.304;6.866;2023-04-25T04:53:03;6.00;99.90
25128;DHT22;13107;51.304;6.866;2023-04-25T04:57:05;6.00;99.90
25128;DHT22;13107;51.304;6.866;2023-04-25T05:01:07;6.10;99.90
25128;DHT22;13107;51.304;6.866;2023-04-25T05:05:09;6.10;99.90
25128;DHT22;13107;51.304;6.866;2023-04-25T05:09:11;6.00;99.90
25128;DHT22;13107;51.304;6.866;2023-04-25T05:13:13;6.10;99.90
25128;DHT22;13107;51.304;6.866;2023-04-25T05:17:15;6.10;99.90
25128;DHT22;13107;51.304;6.866;2023-04-25T05:21:17;6.20;99.90
25128;DHT22;13107;51.304;6.866;2023-04-25T05:25:18;6.10;99.90
25128;DHT22;13107;51.304;6.866;2023-04-25T05:29:20;6.30;99.90
25128;DHT22;13107;51.304;6.866;2023-04-25T05:33:22;6.20;99.90
25128;DHT22;13107;51.304;6.866;2023-04-25T05:37:23;6.30;99.90
25128;DHT22;13107;51.304;6.866;2023-04-25T05:41:25;6.30;99.90
25128;DHT22;13107;51.304;6.866;2023-04-25T05:45:27;6.30;99.90
25128;DHT22;13107;51.304;6.866;2023-04-25T05:49:29;6.30;99.90
25128;DHT22;13107;51.304;6.866;2023-04-25T05:53:31;6.30;99.90
25128;DHT22;13107;51.304;6.866;2023-04-25T05:57:33;6.40;99.90
25128;DHT22;13107;51.304;6.866;2023-04-25T06:01:48;6.50;99.90
25128;DHT22;13107;51.304;6.866;2023-04-25T06:05:49;6.60;99.90
25128;DHT22;13107;51.304;6.866;2023-04-25T06:09:51;6.90;99.90
25128;DHT22;13107;51.304;6.866;2023-04-25T06:13:54;6.90;99.90
25128;DHT22;13107;51.304;6.866;2023-04-25T06:17:56;7.10;99.90
25128;DHT22;13107;51.304;6.866;2023-04-25T06:21:58;7.00;99.90
25128;DHT22;13107;51.304;6.866;2023-04-25T06:26:00;7.20;99.90
25128;DHT22;13107;51.304;6.866;2023-04-25T06:30:01;7.30;99.90
25128;DHT22;13107;51.304;6.866;2023-04-25T06:34:03;7.10;99.90
25128;DHT22;13107;51.304;6.866;2023-04-25T06:38:05;7.30;99.90
25128;DHT22;13107;51.304;6.866;2023-04-25T06:42:06;7.30;99.90
25128;DHT22;13107;51.304;6.866;2023-04-25T06:46:08;7.50;99.90
25128;DHT22;13107;51.304;6.866;2023-04-25T06:50:10;7.50;99.90
25128;DHT22;13107;51.304;6.866;2023-04-25T06:54:12;7.40;99.90
25128;DHT22;13107;51.304;6.866;2023-04-25T06:58:14;7.40;99.90
25128;DHT22;13107;51.304;6.866;2023-04-25T07:02:16;7.70;99.90
25128;DHT22;13107;51.304;6.866;2023-04-25T07:06:17;7.90;99.90
25128;DHT22;13107;51.304;6.866;2023-04-25T07:10:19;8.10;99.90
25128;DHT22;13107;51.304;6.866;2023-04-25T07:14:22;8.00;99.90
25128;DHT22;13107;51.304;6.866;2023-04-25T07:18:24;8.10;99.90
25128;DHT22;13107;51.304;6.866;2023-04-25T07:22:26;7.90;99.90
25128;DHT22;13107;51.304;6.866;2023-04-25T07:26:28;7.80;99.90
25128;DHT22;13107;51.304;6.866;2023-04-25T07:30:30;7.60;99.90
25128;DHT22;13107;51.304;6.866;2023-04-25T07:34:32;7.60;99.90
25128;DHT22;13107;51.304;6.866;2023-04-25T07:38:34;7.80;99.90
25128;DHT22;13107;51.304;6.866;2023-04-25T07:42:35;7.90;99.90
25128;DHT22;13107;51.304;6.866;2023-04-25T07:46:37;8.10;99.90
25128;DHT22;13107;51.304;6.866;2023-04-25T07:50:39;8.30;99.90
25128;DHT22;13107;51.304;6.866;2023-04-25T07:54:40;8.60;99.90
25128;DHT22;13107;51.304;6.866;2023-04-25T07:58:43;8.90;99.90
25128;DHT22;13107;51.304;6.866;2023-04-25T08:02:44;9.10;99.90
25128;DHT22;13107;51.304;6.866;2023-04-25T08:06:46;9.70;99.90
25128;DHT22;13107;51.304;6.866;2023-04-25T08:10:49;10.00;99.90
25128;DHT22;13107;51.304;6.866;2023-04-25T08:14:51;10.20;99.90
25128;DHT22;13107;51.304;6.866;2023-04-25T08:18:53;10.00;99.90
25128;DHT22;13107;51.304;6.866;2023-04-25T08:22:55;10.00;99.90
25128;DHT22;13107;51.304;6.866;2023-04-25T08:26:57;10.10;99.90
25128;DHT22;13107;51.304;6.866;2023-04-25T08:31:00;9.70;99.90
25128;DHT22;13107;51.304;6.866;2023-04-25T08:35:02;9.90;99.90
25128;DHT22;13107;51.304;6.866;2023-04-25T08:39:04;9.60;99.90
25128;DHT22;13107;51.304;6.866;2023-04-25T08:43:06;9.70;99.90
25128;DHT22;13107;51.304;6.866;2023-04-25T08:47:12;9.50;99.90
25128;DHT22;13107;51.304;6.866;2023-04-25T08:51:24;9.00;99.90
25128;DHT22;13107;51.304;6.866;2023-04-25T08:55:27;9.90;99.90
25128;DHT22;13107;51.304;6.866;2023-04-25T08:59:32;10.90;99.90
25128;DHT22;13107;51.304;6.866;2023-04-25T09:03:34;13.20;99.90
25128;DHT22;13107;51.304;6.866;2023-04-25T09:07:36;14.50;99.90
25128;DHT22;13107;51.304;6.866;2023-04-25T09:11:38;15.10;96.80
25128;DHT22;13107;51.304;6.866;2023-04-25T09:15:51;14.70;94.80
25128;DHT22;13107;51.304;6.866;2023-04-25T09:19:53;13.50;94.20
25128;DHT22;13107;51.304;6.866;2023-04-25T09:23:55;12.10;99.20
25128;DHT22;13107;51.304;6.866;2023-04-25T09:27:56;11.20;99.90
25128;DHT22;13107;51.304;6.866;2023-04-25T09:32:13;10.90;99.90
25128;DHT22;13107;51.304;6.866;2023-04-25T09:36:15;10.50;99.90
25128;DHT22;13107;51.304;6.866;2023-04-25T09:40:18;10.30;99.90
25128;DHT22;13107;51.304;6.866;2023-04-25T09:44:23;10.30;99.90
25128;DHT22;13107;51.304;6.866;2023-04-25T09:48:27;12.00;99.90
25128;DHT22;13107;51.304;6.866;2023-04-25T09:52:29;13.00;99.90
25128;DHT22;13107;51.304;6.866;2023-04-25T09:56:36;13.20;99.90
25128;DHT22;13107;51.304;6.866;2023-04-25T10:00:38;13.20;98.30
25128;DHT22;13107;51.304;6.866;2023-04-25T10:04:42;12.70;98.80
25128;DHT22;13107;51.304;6.866;2023-04-25T10:08:50;11.90;99.90
25128;DHT22;13107;51.304;6.866;2023-04-25T10:12:53;11.50;99.90
25128;DHT22;13107;51.304;6.866;2023-04-25T10:16:57;11.00;99.90
25128;DHT22;13107;51.304;6.866;2023-04-25T10:21:04;11.00;99.90
25128;DHT22;13107;51.304;6.866;2023-04-25T10:25:06;11.20;99.90
25128;DHT22;13107;51.304;6.866;2023-04-25T10:29:09;11.30;98.70
25128;DHT22;13107;51.304;6.866;2023-04-25T10:33:17;11.30;99.10
25128;DHT22;13107;51.304;6.866;2023-04-25T10:37:20;11.40;96.30
25128;DHT22;13107;51.304;6.866;2023-04-25T10:41:21;11.50;96.70
25128;DHT22;13107;51.304;6.866;2023-04-25T10:45:25;12.30;99.90
25128;DHT22;13107;51.304;6.866;2023-04-25T10:49:34;13.80;98.00
25128;DHT22;13107;51.304;6.866;2023-04-25T10:53:37;13.20;91.60
25128;DHT22;13107;51.304;6.866;2023-04-25T10:57:40;12.00;96.10
25128;DHT22;13107;51.304;6.866;2023-04-25T11:01:47;11.90;97.60
25128;DHT22;13107;51.304;6.866;2023-04-25T11:05:51;11.40;98.00
25128;DHT22;13107;51.304;6.866;2023-04-25T11:10:02;11.00;97.70
25128;DHT22;13107;51.304;6.866;2023-04-25T11:14:04;11.30;99.90
25128;DHT22;13107;51.304;6.866;2023-04-25T11:18:05;11.60;99.20
25128;DHT22;13107;51.304;6.866;2023-04-25T11:22:10;12.80;99.90
25128;DHT22;13107;51.304;6.866;2023-04-25T11:26:13;14.10;94.50
25128;DHT22;13107;51.304;6.866;2023-04-25T11:30:15;12.90;95.40
25128;DHT22;13107;51.304;6.866;2023-04-25T11:34:18;12.10;96.30
25128;DHT22;13107;51.304;6.866;2023-04-25T11:38:20;11.30;99.50
25128;DHT22;13107;51.304;6.866;2023-04-25T11:42:24;10.70;99.90
25128;DHT22;13107;51.304;6.866;2023-04-25T11:46:26;10.30;99.90
25128;DHT22;13107;51.304;6.866;2023-04-25T11:50:28;9.70;99.90
25128;DHT22;13107;51.304;6.866;2023-04-25T11:54:30;9.60;99.90
25128;DHT22;13107;51.304;6.866;2023-04-25T11:58:31;10.20;99.90
25128;DHT22;13107;51.304;6.866;2023-04-25T12:02:35;10.90;99.90
25128;DHT22;13107;51.304;6.866;2023-04-25T12:06:38;10.40;99.90
25128;DHT22;13107;51.304;6.866;2023-04-25T12:10:44;10.40;99.90
25128;DHT22;13107;51.304;6.866;2023-04-25T12:14:47;10.10;99.90
25128;DHT22;13107;51.304;6.866;2023-04-25T12:18:52;9.90;99.90
25128;DHT22;13107;51.304;6.866;2023-04-25T12:22:57;9.60;99.90
25128;DHT22;13107;51.304;6.866;2023-04-25T12:27:01;9.30;99.90
25128;DHT22;13107;51.304;6.866;2023-04-25T12:31:05;9.00;99.90
25128;DHT22;13107;51.304;6.866;2023-04-25T12:35:08;8.90;99.90
25128;DHT22;13107;51.304;6.866;2023-04-25T12:39:15;9.10;99.90
25128;DHT22;13107;51.304;6.866;2023-04-25T12:43:16;9.30;99.90
25128;DHT22;13107;51.304;6.866;2023-04-25T12:47:19;9.50;99.90
25128;DHT22;13107;51.304;6.866;2023-04-25T12:51:21;9.90;99.90
25128;DHT22;13107;51.304;6.866;2023-04-25T12:55:26;10.50;99.90
25128;DHT22;13107;51.304;6.866;2023-04-25T12:59:28;11.20;99.90
25128;DHT22;13107;51.304;6.866;2023-04-25T13:03:29;11.80;99.90
25128;DHT22;13107;51.304;6.866;2023-04-25T13:07:31;12.50;99.90
25128;DHT22;13107;51.304;6.866;2023-04-25T13:11:36;13.50;99.90
25128;DHT22;13107;51.304;6.866;2023-04-25T13:15:38;13.70;99.90
25128;DHT22;13107;51.304;6.866;2023-04-25T13:19:39;12.50;99.90
25128;DHT22;13107;51.304;6.866;2023-04-25T13:23:41;12.10;99.90
25128;DHT22;13107;51.304;6.866;2023-04-25T13:27:44;12.30;99.90
25128;DHT22;13107;51.304;6.866;2023-04-25T13:31:46;12.70;99.90
25128;DHT22;13107;51.304;6.866;2023-04-25T13:35:49;12.50;99.90
25128;DHT22;13107;51.304;6.866;2023-04-25T13:40:02;11.90;99.90
25128;DHT22;13107;51.304;6.866;2023-04-25T13:44:06;11.40;99.90
25128;DHT22;13107;51.304;6.866;2023-04-25T13:48:08;10.70;99.90
25128;DHT22;13107;51.304;6.866;2023-04-25T13:52:09;10.10;99.90
25128;DHT22;13107;51.304;6.866;2023-04-25T13:56:11;9.70;99.90
25128;DHT22;13107;51.304;6.866;2023-04-25T14:00:13;9.40;99.90
25128;DHT22;13107;51.304;6.866;2023-04-25T14:04:15;9.50;99.90
25128;DHT22;13107;51.304;6.866;2023-04-25T14:08:17;11.50;99.90
25128;DHT22;13107;51.304;6.866;2023-04-25T14:12:18;14.00;99.90
25128;DHT22;13107;51.304;6.866;2023-04-25T14:16:20;15.20;99.90
25128;DHT22;13107;51.304;6.866;2023-04-25T14:20:22;15.70;99.90
25128;DHT22;13107;51.304;6.866;2023-04-25T14:24:25;14.00;98.70
25128;DHT22;13107;51.304;6.866;2023-04-25T14:28:27;12.90;99.90
25128;DHT22;13107;51.304;6.866;2023-04-25T14:32:28;12.10;99.90
25128;DHT22;13107;51.304;6.866;2023-04-25T14:36:30;11.70;99.90
25128;DHT22;13107;51.304;6.866;2023-04-25T14:40:33;11.40;99.90
25128;DHT22;13107;51.304;6.866;2023-04-25T14:44:35;11.30;99.90
25128;DHT22;13107;51.304;6.866;2023-04-25T14:48:37;11.00;99.90
25128;DHT22;13107;51.304;6.866;2023-04-25T14:52:39;10.90;99.90
25128;DHT22;13107;51.304;6.866;2023-04-25T14:56:40;12.00;99.90
25128;DHT22;13107;51.304;6.866;2023-04-25T15:00:42;13.10;99.90
25128;DHT22;13107;51.304;6.866;2023-04-25T15:04:45;12.90;99.90
25128;DHT22;13107;51.304;6.866;2023-04-25T15:08:47;12.40;99.90
25128;DHT22;13107;51.304;6.866;2023-04-25T15:12:49;11.40;99.90
25128;DHT22;13107;51.304;6.866;2023-04-25T15:16:51;11.00;99.90
25128;DHT22;13107;51.304;6.866;2023-04-25T15:20:53;10.50;99.90
25128;DHT22;13107;51.304;6.866;2023-04-25T15:24:55;10.10;99.90
25128;DHT22;13107;51.304;6.866;2023-04-25T15:28:57;10.00;99.90
25128;DHT22;13107;51.304;6.866;2023-04-25T15:32:59;10.00;99.90
25128;DHT22;13107;51.304;6.866;2023-04-25T15:37:01;9.90;99.90
25128;DHT22;13107;51.304;6.866;2023-04-25T15:41:02;10.10;99.90
25128;DHT22;13107;51.304;6.866;2023-04-25T15:45:08;10.40;99.90
25128;DHT22;13107;51.304;6.866;2023-04-25T15:49:10;10.50;99.90
25128;DHT22;13107;51.304;6.866;2023-04-25T15:53:11;10.60;99.90
25128;DHT22;13107;51.304;6.866;2023-04-25T15:57:13;10.40;99.90
25128;DHT22;13107;51.304;6.866;2023-04-25T16:01:16;10.30;99.90
25128;DHT22;13107;51.304;6.866;2023-04-25T16:05:18;10.20;99.90
25128;DHT22;13107;51.304;6.866;2023-04-25T16:09:20;10.20;99.90
25128;DHT22;13107;51.304;6.866;2023-04-25T16:13:22;10.00;99.90
25128;DHT22;13107;51.304;6.866;2023-04-25T16:17:24;9.90;99.90
25128;DHT22;13107;51.304;6.866;2023-04-25T16:21:26;9.80;99.90
25128;DHT22;13107;51.304;6.866;2023-04-25T16:25:29;9.70;99.90
25128;DHT22;13107;51.304;6.866;2023-04-25T16:29:30;9.70;99.90
25128;DHT22;13107;51.304;6.866;2023-04-25T16:33:33;9.60;99.90
25128;DHT22;13107;51.304;6.866;2023-04-25T16:37:35;9.70;99.90
25128;DHT22;13107;51.304;6.866;2023-04-25T16:41:37;9.60;99.90
25128;DHT22;13107;51.304;6.866;2023-04-25T16:45:38;9.60;99.90
25128;DHT22;13107;51.304;6.866;2023-04-25T16:49:40;9.60;99.90
25128;DHT22;13107;51.304;6.866;2023-04-25T16:53:42;9.50;99.90
25128;DHT22;13107;51.304;6.866;2023-04-25T16:57:44;9.50;99.90
25128;DHT22;13107;51.304;6.866;2023-04-25T17:01:45;9.50;99.90
25128;DHT22;13107;51.304;6.866;2023-04-25T17:05:51;9.50;99.90
25128;DHT22;13107;51.304;6.866;2023-04-25T17:09:55;9.50;99.90
25128;DHT22;13107;51.304;6.866;2023-04-25T17:13:57;9.60;99.90
25128;DHT22;13107;51.304;6.866;2023-04-25T17:17:58;9.50;99.90
25128;DHT22;13107;51.304;6.866;2023-04-25T17:22:03;9.30;99.90
25128;DHT22;13107;51.304;6.866;2023-04-25T17:26:05;9.20;99.90
25128;DHT22;13107;51.304;6.866;2023-04-25T17:30:07;9.00;99.90
25128;DHT22;13107;51.304;6.866;2023-04-25T17:34:09;9.10;99.90
25128;DHT22;13107;51.304;6.866;2023-04-25T17:38:13;9.10;99.90
25128;DHT22;13107;51.304;6.866;2023-04-25T17:42:15;9.10;99.90
25128;DHT22;13107;51.304;6.866;2023-04-25T17:46:17;9.10;99.90
25128;DHT22;13107;51.304;6.866;2023-04-25T17:50:19;9.00;99.90
25128;DHT22;13107;51.304;6.866;2023-04-25T17:54:21;9.10;99.90
25128;DHT22;13107;51.304;6.866;2023-04-25T17:58:23;9.10;99.90
25128;DHT22;13107;51.304;6.866;2023-04-25T18:02:26;9.00;99.90
25128;DHT22;13107;51.304;6.866;2023-04-25T18:06:28;9.10;99.90
25128;DHT22;13107;51.304;6.866;2023-04-25T18:10:30;9.10;99.90
25128;DHT22;13107;51.304;6.866;2023-04-25T18:14:32;9.10;99.90
25128;DHT22;13107;51.304;6.866;2023-04-25T18:18:35;9.00;99.90
25128;DHT22;13107;51.304;6.866;2023-04-25T18:22:38;8.90;99.90
25128;DHT22;13107;51.304;6.866;2023-04-25T18:26:40;8.90;99.90
25128;DHT22;13107;51.304;6.866;2023-04-25T18:30:42;8.70;99.90
25128;DHT22;13107;51.304;6.866;2023-04-25T18:34:44;8.60;99.90
25128;DHT22;13107;51.304;6.866;2023-04-25T18:38:49;8.50;99.90
25128;DHT22;13107;51.304;6.866;2023-04-25T18:42:57;8.30;99.90
25128;DHT22;13107;51.304;6.866;2023-04-25T18:46:59;8.30;99.90
25128;DHT22;13107;51.304;6.866;2023-04-25T18:51:01;8.10;99.90
25128;DHT22;13107;51.304;6.866;2023-04-25T18:55:03;8.00;99.90
25128;DHT22;13107;51.304;6.866;2023-04-25T18:59:05;7.90;99.90
25128;DHT22;13107;51.304;6.866;2023-04-25T19:03:07;7.70;99.90
25128;DHT22;13107;51.304;6.866;2023-04-25T19:07:09;7.70;99.90
25128;DHT22;13107;51.304;6.866;2023-04-25T19:11:11;7.60;99.90
25128;DHT22;13107;51.304;6.866;2023-04-25T19:15:21;7.50;99.90
25128;DHT22;13107;51.304;6.866;2023-04-25T19:19:23;7.50;99.90
25128;DHT22;13107;51.304;6.866;2023-04-25T19:23:25;7.50;99.90
25128;DHT22;13107;51.304;6.866;2023-04-25T19:27:27;7.40;99.90
25128;DHT22;13107;51.304;6.866;2023-04-25T19:31:28;7.30;99.90
25128;DHT22;13107;51.304;6.866;2023-04-25T19:35:31;7.30;99.90
25128;DHT22;13107;51.304;6.866;2023-04-25T19:39:33;7.20;99.90
25128;DHT22;13107;51.304;6.866;2023-04-25T19:43:35;7.00;99.90
25128;DHT22;13107;51.304;6.866;2023-04-25T19:47:37;6.90;99.90
25128;DHT22;13107;51.304;6.866;2023-04-25T19:51:40;6.80;99.90
25128;DHT22;13107;51.304;6.866;2023-04-25T19:55:41;6.70;99.90
25128;DHT22;13107;51.304;6.866;2023-04-25T19:59:44;6.60;99.90
25128;DHT22;13107;51.304;6.866;2023-04-25T20:03:48;6.60;99.90
25128;DHT22;13107;51.304;6.866;2023-04-25T20:07:53;6.50;99.90
25128;DHT22;13107;51.304;6.866;2023-04-25T20:11:55;6.40;99.90
25128;DHT22;13107;51.304;6.866;2023-04-25T20:15:57;6.20;99.90
25128;DHT22;13107;51.304;6.866;2023-04-25T20:20:02;6.10;99.90
25128;DHT22;13107;51.304;6.866;2023-04-25T20:24:06;6.10;99.90
25128;DHT22;13107;51.304;6.866;2023-04-25T20:28:09;5.90;99.90
25128;DHT22;13107;51.304;6.866;2023-04-25T20:32:10;5.80;99.90
25128;DHT22;13107;51.304;6.866;2023-04-25T20:36:12;5.70;99.90
25128;DHT22;13107;51.304;6.866;2023-04-25T20:40:16;5.60;99.90
25128;DHT22;13107;51.304;6.866;2023-04-25T20:44:17;5.50;99.90
25128;DHT22;13107;51.304;6.866;2023-04-25T20:48:21;5.30;99.90
25128;DHT22;13107;51.304;6.866;2023-04-25T20:52:22;5.20;99.90
25128;DHT22;13107;51.304;6.866;2023-04-25T20:56:25;5.10;99.90
25128;DHT22;13107;51.304;6.866;2023-04-25T21:00:27;4.90;99.90
25128;DHT22;13107;51.304;6.866;2023-04-25T21:04:29;4.80;99.90
25128;DHT22;13107;51.304;6.866;2023-04-25T21:08:32;4.60;99.90
25128;DHT22;13107;51.304;6.866;2023-04-25T21:12:33;4.60;99.90
25128;DHT22;13107;51.304;6.866;2023-04-25T21:16:36;4.40;99.90
25128;DHT22;13107;51.304;6.866;2023-04-25T21:20:39;4.30;99.90
25128;DHT22;13107;51.304;6.866;2023-04-25T21:24:41;4.20;99.90
25128;DHT22;13107;51.304;6.866;2023-04-25T21:28:42;4.10;99.90
25128;DHT22;13107;51.304;6.866;2023-04-25T21:32:45;4.00;99.90
25128;DHT22;13107;51.304;6.866;2023-04-25T21:36:47;3.90;99.90
25128;DHT22;13107;51.304;6.866;2023-04-25T21:40:48;3.80;99.90
25128;DHT22;13107;51.304;6.866;2023-04-25T21:44:50;3.70;99.90
25128;DHT22;13107;51.304;6.866;2023-04-25T21:48:52;3.50;99.90
25128;DHT22;13107;51.304;6.866;2023-04-25T21:52:54;3.50;99.90
25128;DHT22;13107;51.304;6.866;2023-04-25T21:56:59;3.40;99.90
25128;DHT22;13107;51.304;6.866;2023-04-25T22:01:01;3.30;99.90
25128;DHT22;13107;51.304;6.866;2023-04-25T22:05:03;3.20;99.90
25128;DHT22;13107;51.304;6.866;2023-04-25T22:09:05;3.10;99.90
25128;DHT22;13107;51.304;6.866;2023-04-25T22:13:07;3.10;99.90
25128;DHT22;13107;51.304;6.866;2023-04-25T22:17:08;3.00;99.90
25128;DHT22;13107;51.304;6.866;2023-04-25T22:21:12;2.90;99.90
25128;DHT22;13107;51.304;6.866;2023-04-25T22:25:14;2.90;99.90
25128;DHT22;13107;51.304;6.866;2023-04-25T22:29:16;2.80;99.90
25128;DHT22;13107;51.304;6.866;2023-04-25T22:33:18;2.70;99.90
25128;DHT22;13107;51.304;6.866;2023-04-25T22:37:19;2.60;99.90
25128;DHT22;13107;51.304;6.866;2023-04-25T22:41:21;2.60;99.90
25128;DHT22;13107;51.304;6.866;2023-04-25T22:45:24;2.50;99.90
25128;DHT22;13107;51.304;6.866;2023-04-25T22:49:25;2.40;99.90
25128;DHT22;13107;51.304;6.866;2023-04-25T22:53:27;2.30;99.90
25128;DHT22;13107;51.304;6.866;2023-04-25T22:57:30;2.30;99.90
25128;DHT22;13107;51.304;6.866;2023-04-25T23:01:32;2.30;99.90
25128;DHT22;13107;51.304;6.866;2023-04-25T23:05:34;2.20;99.90
25128;DHT22;13107;51.304;6.866;2023-04-25T23:09:36;2.20;99.90
25128;DHT22;13107;51.304;6.866;2023-04-25T23:13:37;2.10;99.90
25128;DHT22;13107;51.304;6.866;2023-04-25T23:17:40;2.10;99.90
25128;DHT22;13107;51.304;6.866;2023-04-25T23:21:42;2.00;99.90
25128;DHT22;13107;51.304;6.866;2023-04-25T23:25:44;2.00;99.90
25128;DHT22;13107;51.304;6.866;2023-04-25T23:29:52;1.90;99.90
25128;DHT22;13107;51.304;6.866;2023-04-25T23:33:55;1.80;99.90
25128;DHT22;13107;51.304;6.866;2023-04-25T23:37:57;1.80;99.90
25128;DHT22;13107;51.304;6.866;2023-04-25T23:41:59;1.80;99.90
25128;DHT22;13107;51.304;6.866;2023-04-25T23:46:01;1.70;99.90
25128;DHT22;13107;51.304;6.866;2023-04-25T23:50:03;1.70;99.90
25128;DHT22;13107;51.304;6.866;2023-04-25T23:54:05;1.70;99.90
25128;DHT22;13107;51.304;6.866;2023-04-25T23:58:06;1.60;99.90
